Terminal Aerodrome Forecast
Issued by NWS Wakefield, VA

Home | Current Version | Previous Version | Text Only | Print | Product List | Glossary On
Versions: 1 2 3 4 5 6 7 8 9 10 11 12 13 14 15 16 17 18
000
FTUS41 KAKQ 301120
TAFSBY
TAF
KSBY 301120Z 3012/3112 17003KT P6SM SKC
     FM301500 21011KT P6SM SCT080 BKN150
     FM302200 19007KT P6SM VCSH BKN050 OVC100
     FM310900 32003KT 4SM BR SKC=

USA.gov is the U.S. government's official web portal to all federal, state and local government web resources and services.